Time;durP1;ratioP1;P1;durP2;ratioP2;P2;SDS_P1;SDS_P2;PMS_P1;PMS_P2;Temp;Humidity;BMP_temperature;BMP_pressure;BME280_temperature;BME280_humidity;BME280_pressure;Samples;Min_cycle;Max_cycle;Signal;HPM_P1;HPM_P2
2022/02/24 00:02:00;;;;;;;8.43;3.57;;;7.90;99.90;;;;;;5116049;28;20326;-65
2022/02/24 00:04:26;;;;;;;7.20;3.13;;;7.90;99.90;;;;;;5116204;28;20028;-65
2022/02/24 00:06:52;;;;;;;9.57;3.83;;;7.90;99.90;;;;;;5097434;28;20106;-65
2022/02/24 00:09:17;;;;;;;7.33;3.20;;;8.00;99.90;;;;;;5115725;28;20062;-65
2022/02/24 00:11:43;;;;;;;8.10;3.30;;;8.00;99.90;;;;;;5097519;28;20086;-65
2022/02/24 00:14:09;;;;;;;8.07;3.20;;;8.10;99.90;;;;;;5115828;28;20024;-65
2022/02/24 00:16:34;;;;;;;5.43;3.00;;;8.00;99.90;;;;;;5115678;28;20024;-65
2022/02/24 00:19:00;;;;;;;5.20;3.00;;;8.00;99.90;;;;;;5115420;28;20098;-66
2022/02/24 00:21:25;;;;;;;6.60;3.17;;;8.00;99.90;;;;;;5115582;28;20027;-65
2022/02/24 00:23:51;;;;;;;7.97;3.03;;;8.00;99.90;;;;;;5097016;28;20035;-66
2022/02/24 00:26:17;;;;;;;7.27;3.03;;;8.10;99.90;;;;;;5115506;28;20027;-66
2022/02/24 00:28:43;;;;;;;6.88;3.20;;;8.10;99.90;;;;;;5115564;28;20031;-65
2022/02/24 00:31:09;;;;;;;5.78;2.97;;;8.20;99.90;;;;;;5115098;28;20061;-65
2022/02/24 00:33:41;;;;;;;6.22;2.97;;;8.10;99.90;;;;;;5115049;28;20053;-65
2022/02/24 00:36:07;;;;;;;7.57;3.03;;;8.10;99.90;;;;;;5115427;28;20364;-65
2022/02/24 00:38:34;;;;;;;6.00;2.95;;;8.00;99.90;;;;;;5114970;28;20027;-64
2022/02/24 00:41:00;;;;;;;;;;;7.90;99.90;;;;;;5097080;28;20035;-65
2022/02/24 00:43:25;;;;;;;7.90;3.20;;;7.90;99.90;;;;;;5096646;28;19910;-65
2022/02/24 00:45:51;;;;;;;6.65;2.95;;;8.00;99.90;;;;;;5096737;28;20019;-65
2022/02/24 00:48:17;;;;;;;6.33;3.20;;;8.00;99.90;;;;;;5115391;28;20031;-64
2022/02/24 00:50:44;;;;;;;6.57;2.80;;;8.10;99.90;;;;;;5114808;28;20356;-66
2022/02/24 00:53:10;;;;;;;5.47;2.47;;;8.10;99.90;;;;;;5114925;28;20743;-66
2022/02/24 00:55:36;;;;;;;7.28;2.97;;;8.10;99.90;;;;;;5096527;28;20024;-64
2022/02/24 00:58:01;;;;;;;5.63;3.25;;;8.10;99.90;;;;;;5096599;28;20032;-66
2022/02/24 01:00:27;;;;;;;7.77;2.80;;;8.20;99.90;;;;;;5096226;28;20096;-65
2022/02/24 01:02:53;;;;;;;5.45;3.25;;;8.30;99.90;;;;;;5114948;28;20387;-65
2022/02/24 01:05:18;;;;;;;8.10;2.83;;;8.30;99.90;;;;;;5096411;28;20470;-66
2022/02/24 01:07:44;;;;;;;6.30;2.42;;;8.40;99.90;;;;;;5114644;28;20139;-65
2022/02/24 01:10:10;;;;;;;8.25;3.90;;;8.40;99.90;;;;;;5114466;28;20040;-65
2022/02/24 01:12:36;;;;;;;5.53;2.85;;;8.40;99.90;;;;;;5100861;22;20048;-67
2022/02/24 01:15:06;;;;;;;5.60;2.67;;;8.50;99.90;;;;;;5094049;28;20032;-67
2022/02/24 01:17:33;;;;;;;6.78;2.75;;;8.50;99.90;;;;;;5076550;28;20140;-68
2022/02/24 01:19:59;;;;;;;4.50;3.53;;;8.60;99.90;;;;;;5093817;28;20035;-68
2022/02/24 01:22:25;;;;;;;4.97;2.97;;;8.50;99.90;;;;;;5075600;28;20020;-68
2022/02/24 01:24:51;;;;;;;5.28;2.80;;;8.50;99.90;;;;;;5094536;28;20056;-68
2022/02/24 01:27:17;;;;;;;6.20;2.60;;;8.50;99.90;;;;;;5094163;28;20058;-67
2022/02/24 01:29:42;;;;;;;6.00;2.58;;;8.50;99.90;;;;;;5093788;28;20063;-67
2022/02/24 01:32:08;;;;;;;6.63;2.63;;;8.50;99.90;;;;;;5093666;28;20478;-66
2022/02/24 01:34:33;;;;;;;7.30;2.87;;;8.50;99.90;;;;;;5093586;28;20016;-68
2022/02/24 01:36:59;;;;;;;7.20;3.10;;;8.40;99.90;;;;;;5093552;28;20035;-67
2022/02/24 01:39:25;;;;;;;8.37;2.97;;;8.40;99.90;;;;;;5093580;28;20035;-67
2022/02/24 01:41:52;;;;;;;6.50;3.07;;;8.40;99.90;;;;;;5093969;28;20156;-67
2022/02/24 01:44:17;;;;;;;9.43;5.15;;;8.40;99.90;;;;;;5093798;28;20030;-68
2022/02/24 01:46:43;;;;;;;9.60;6.00;;;8.30;99.90;;;;;;5093673;28;20474;-67
2022/02/24 01:49:09;;;;;;;6.43;2.75;;;8.40;99.90;;;;;;5094008;28;20103;-67
2022/02/24 01:51:36;;;;;;;13.27;8.75;;;8.40;99.90;;;;;;5094276;28;20024;-67
2022/02/24 01:54:02;;;;;;;;;;;8.40;99.90;;;;;;5094181;28;20137;-67
2022/02/24 01:56:28;;;;;;;12.25;7.18;;;8.40;99.90;;;;;;5093573;28;19911;-67
2022/02/24 01:58:54;;;;;;;7.13;3.20;;;8.40;99.90;;;;;;5093478;28;20032;-67
2022/02/24 02:01:21;;;;;;;5.50;3.20;;;8.50;99.90;;;;;;5093150;28;20388;-67
2022/02/24 02:03:49;;;;;;;6.10;2.58;;;8.40;99.90;;;;;;5075188;28;20028;-68
2022/02/24 02:06:15;;;;;;;6.00;2.70;;;8.40;99.90;;;;;;5075080;28;20035;-68
2022/02/24 02:08:42;;;;;;;4.22;2.70;;;8.40;99.90;;;;;;5093087;28;20073;-67
2022/02/24 02:11:08;;;;;;;7.05;2.40;;;8.40;99.90;;;;;;5092763;28;20108;-66
2022/02/24 02:13:34;;;;;;;7.23;3.03;;;8.40;99.90;;;;;;5093230;28;20095;-67
2022/02/24 02:16:00;;;;;;;10.05;5.25;;;8.50;99.90;;;;;;5075209;28;20381;-68
2022/02/24 02:18:26;;;;;;;4.88;2.40;;;8.50;99.90;;;;;;5075012;28;20066;-68
2022/02/24 02:20:51;;;;;;;8.90;2.77;;;8.50;99.90;;;;;;5093204;28;20047;-67
2022/02/24 02:23:17;;;;;;;4.53;2.40;;;8.50;99.90;;;;;;5093318;28;20376;-67
2022/02/24 02:25:43;;;;;;;5.63;2.90;;;8.50;99.90;;;;;;5074910;28;20429;-66
2022/02/24 02:28:16;;;;;;;8.15;2.63;;;8.50;99.90;;;;;;5093122;28;20085;-67
2022/02/24 02:30:42;;;;;;;4.00;2.40;;;8.50;99.90;;;;;;5093841;28;20031;-67
2022/02/24 02:33:08;;;;;;;;;;;8.50;99.90;;;;;;5075510;28;20394;-67
2022/02/24 02:35:34;;;;;;;5.35;2.28;;;8.40;99.90;;;;;;5092803;28;19904;-67
2022/02/24 02:38:00;;;;;;;5.15;2.55;;;8.40;99.90;;;;;;5092728;28;20024;-67
2022/02/24 02:40:26;;;;;;;5.47;2.40;;;8.30;99.90;;;;;;5092919;28;20024;-67
2022/02/24 02:42:52;;;;;;;10.23;2.90;;;8.30;99.90;;;;;;5074513;28;20121;-67
2022/02/24 02:45:18;;;;;;;4.93;2.40;;;8.30;99.90;;;;;;5093221;28;20024;-67
2022/02/24 02:47:44;;;;;;;5.35;2.30;;;8.40;99.90;;;;;;5093015;28;20105;-68
2022/02/24 02:50:12;;;;;;;5.55;2.53;;;8.40;99.90;;;;;;5093483;28;20068;-67
2022/02/24 02:52:37;;;;;;;4.80;3.03;;;8.40;99.90;;;;;;5093034;28;20074;-67
2022/02/24 02:55:08;;;;;;;6.57;2.70;;;8.30;99.90;;;;;;5092943;28;20028;-68
2022/02/24 02:57:35;;;;;;;4.25;2.60;;;8.30;99.90;;;;;;5093031;28;20024;-68
2022/02/24 03:00:03;;;;;;;5.20;2.50;;;8.30;99.90;;;;;;5093218;28;20069;-67
2022/02/24 03:02:29;;;;;;;5.38;2.65;;;8.30;99.90;;;;;;5078054;28;20024;-68
2022/02/24 03:04:55;;;;;;;8.00;2.80;;;8.30;99.90;;;;;;5096404;28;20020;-68
2022/02/24 03:07:21;;;;;;;5.53;2.43;;;8.20;99.90;;;;;;5096431;28;20020;-68
2022/02/24 03:09:47;;;;;;;;;;;8.20;99.90;;;;;;5078415;28;20031;-68
2022/02/24 03:12:13;;;;;;;6.85;2.70;;;8.20;99.90;;;;;;5094968;28;19916;-67
2022/02/24 03:14:39;;;;;;;5.63;2.40;;;8.30;99.90;;;;;;5097027;28;20469;-67
2022/02/24 03:17:05;;;;;;;3.22;2.00;;;8.30;99.90;;;;;;5097150;28;20266;-67
2022/02/24 03:19:31;;;;;;;4.00;2.63;;;8.30;99.90;;;;;;5096611;28;20028;-67
2022/02/24 03:21:57;;;;;;;5.10;2.20;;;8.20;99.90;;;;;;5096028;28;20022;-67
2022/02/24 03:24:22;;;;;;;6.15;2.60;;;8.20;99.90;;;;;;5096115;28;20081;-67
2022/02/24 03:26:48;;;;;;;6.07;2.17;;;8.20;99.90;;;;;;5096291;28;20032;-68
2022/02/24 03:29:15;;;;;;;9.13;3.08;;;8.10;99.90;;;;;;5077631;28;20032;-68
2022/02/24 03:31:41;;;;;;;4.32;2.13;;;8.10;99.90;;;;;;5077689;28;20024;-67
2022/02/24 03:34:07;;;;;;;5.30;2.80;;;8.10;99.90;;;;;;5095996;28;20495;-68
2022/02/24 03:36:33;;;;;;;3.72;2.50;;;8.10;99.90;;;;;;5077824;28;20130;-68
2022/02/24 03:38:59;;;;;;;4.35;2.40;;;8.00;99.90;;;;;;5077615;28;20024;-67
2022/02/24 03:41:25;;;;;;;5.82;2.33;;;8.00;99.90;;;;;;5095685;28;20054;-67
2022/02/24 03:43:53;;;;;;;4.90;2.40;;;8.00;99.90;;;;;;5095757;28;20028;-67
2022/02/24 03:46:20;;;;;;;5.43;2.35;;;7.90;99.90;;;;;;5096182;28;20106;-67
2022/02/24 03:48:47;;;;;;;6.72;2.20;;;7.90;99.90;;;;;;5096121;28;20030;-68
2022/02/24 03:51:12;;;;;;;5.55;2.17;;;8.00;99.90;;;;;;5095497;28;20024;-67
2022/02/24 03:53:38;;;;;;;5.30;2.27;;;7.90;99.90;;;;;;5077463;28;20089;-67
2022/02/24 03:56:04;;;;;;;7.07;2.40;;;8.00;99.90;;;;;;5077597;28;20120;-67
2022/02/24 03:58:29;;;;;;;4.50;2.42;;;8.00;99.90;;;;;;5097486;28;20027;-67
2022/02/24 04:00:55;;;;;;;8.07;2.43;;;8.00;99.90;;;;;;5095740;28;20032;-67
2022/02/24 04:03:21;;;;;;;5.83;2.67;;;7.90;99.90;;;;;;5095572;28;20361;-67
2022/02/24 04:05:46;;;;;;;5.30;2.33;;;8.10;99.90;;;;;;5095343;28;20027;-67
2022/02/24 04:08:12;;;;;;;6.07;2.27;;;8.00;99.90;;;;;;5095382;28;20024;-67
2022/02/24 04:10:38;;;;;;;5.50;2.47;;;8.10;99.90;;;;;;5094893;28;20039;-67
2022/02/24 04:13:03;;;;;;;4.93;2.50;;;8.00;99.90;;;;;;5095671;28;20063;-67
2022/02/24 04:15:29;;;;;;;5.23;1.93;;;7.90;99.90;;;;;;5077079;28;20024;-67
2022/02/24 04:17:55;;;;;;;4.00;2.10;;;7.90;99.90;;;;;;5076707;28;20028;-67
2022/02/24 04:20:20;;;;;;;5.95;2.33;;;7.90;99.90;;;;;;5094951;28;20028;-67
2022/02/24 04:22:46;;;;;;;6.13;1.90;;;7.90;99.90;;;;;;5095015;28;20031;-67
2022/02/24 04:25:12;;;;;;;3.87;1.90;;;7.80;99.90;;;;;;5094888;28;20021;-67
2022/02/24 04:27:48;;;;;;;3.50;1.90;;;7.90;99.90;;;;;;5095255;28;20031;-67
2022/02/24 04:30:15;;;;;;;5.43;1.87;;;7.80;99.90;;;;;;5095126;28;20024;-67
2022/02/24 04:32:41;;;;;;;4.13;1.90;;;7.90;99.90;;;;;;5094808;28;20012;-66
2022/02/24 04:35:08;;;;;;;3.75;2.03;;;7.90;99.90;;;;;;5094718;28;20024;-67
2022/02/24 04:37:35;;;;;;;5.35;2.03;;;7.90;99.90;;;;;;5094770;28;20020;-67
2022/02/24 04:40:01;;;;;;;3.60;2.10;;;7.90;99.90;;;;;;5094962;28;20111;-67
2022/02/24 04:42:26;;;;;;;5.28;2.58;;;7.80;99.90;;;;;;5076338;28;20036;-67
2022/02/24 04:44:52;;;;;;;4.67;2.23;;;7.90;99.90;;;;;;5094813;28;20053;-67
2022/02/24 04:47:18;;;;;;;6.13;2.40;;;7.90;99.90;;;;;;5094769;28;20073;-67
2022/02/24 04:49:43;;;;;;;4.23;2.27;;;8.00;99.90;;;;;;5094967;28;20067;-66
2022/02/24 04:52:09;;;;;;;3.67;1.70;;;7.90;99.90;;;;;;5094617;28;20032;-67
2022/02/24 04:54:34;;;;;;;8.87;2.63;;;7.80;99.90;;;;;;5094760;28;20024;-67
2022/02/24 04:57:00;;;;;;;2.73;1.80;;;8.00;99.90;;;;;;5095156;28;20556;-67
2022/02/24 04:59:25;;;;;;;2.70;2.30;;;8.10;99.90;;;;;;5095296;28;20522;-66
2022/02/24 05:01:51;;;;;;;4.73;2.20;;;8.00;99.90;;;;;;5094496;28;20051;-66
2022/02/24 05:04:17;;;;;;;4.10;2.33;;;7.90;99.90;;;;;;5094574;28;20035;-67
2022/02/24 05:06:43;;;;;;;5.27;2.10;;;7.80;99.90;;;;;;5094405;28;20028;-67
2022/02/24 05:09:09;;;;;;;5.25;2.60;;;7.70;99.90;;;;;;5094143;28;20421;-66
2022/02/24 05:11:35;;;;;;;5.70;2.70;;;7.70;99.90;;;;;;5094114;28;20111;-67
2022/02/24 05:14:01;;;;;;;4.88;2.20;;;7.60;99.90;;;;;;5094313;28;20258;-68
2022/02/24 05:16:26;;;;;;;5.93;2.33;;;7.60;99.90;;;;;;5075995;28;20078;-69
2022/02/24 05:18:52;;;;;;;6.30;2.83;;;7.70;99.90;;;;;;5094286;28;20040;-69
2022/02/24 05:21:18;;;;;;;6.43;2.47;;;7.60;99.90;;;;;;5076121;28;20036;-68
2022/02/24 05:23:44;;;;;;;4.03;2.07;;;7.60;99.90;;;;;;5093396;28;20258;-67
2022/02/24 05:26:10;;;;;;;3.88;2.63;;;7.60;99.90;;;;;;5076096;28;20075;-68
2022/02/24 05:28:35;;;;;;;6.30;2.75;;;7.60;99.90;;;;;;5093816;28;20075;-68
2022/02/24 05:31:01;;;;;;;4.95;2.53;;;7.50;99.90;;;;;;5076141;28;20035;-66
2022/02/24 05:33:28;;;;;;;9.37;3.23;;;7.50;99.90;;;;;;5094004;28;20112;-70
2022/02/24 05:35:55;;;;;;;5.90;2.33;;;7.50;99.90;;;;;;5094027;28;20259;-68
2022/02/24 05:38:21;;;;;;;;;;;7.50;99.90;;;;;;5094074;28;20028;-68
2022/02/24 05:40:47;;;;;;;4.68;2.67;;;7.50;99.90;;;;;;5094346;28;19911;-68
2022/02/24 05:43:12;;;;;;;6.40;2.65;;;7.40;99.90;;;;;;5093632;28;20024;-68
2022/02/24 05:45:38;;;;;;;6.40;2.60;;;7.40;99.90;;;;;;5093532;28;20059;-67
2022/02/24 05:48:04;;;;;;;5.13;2.67;;;7.40;99.90;;;;;;5075536;28;20032;-69
2022/02/24 05:50:29;;;;;;;5.87;3.03;;;7.40;99.90;;;;;;5093601;28;20032;-68
2022/02/24 05:53:02;;;;;;;7.30;2.60;;;7.40;99.90;;;;;;5093376;28;20333;-69
2022/02/24 05:55:34;;;;;;;4.90;2.38;;;7.40;99.90;;;;;;5075506;28;20530;-67
2022/02/24 05:58:00;;;;;;;5.70;2.78;;;7.40;99.90;;;;;;5093350;28;20081;-67
2022/02/24 06:00:26;;;;;;;6.65;2.53;;;7.40;99.90;;;;;;5094209;28;20048;-68
2022/02/24 06:02:52;;;;;;;5.93;2.40;;;7.40;99.90;;;;;;5097325;28;20039;-69
2022/02/24 06:05:17;;;;;;;5.07;2.43;;;7.40;99.90;;;;;;5094784;28;20052;-68
2022/02/24 06:07:44;;;;;;;2.95;2.05;;;7.50;99.90;;;;;;5075702;28;20176;-69
2022/02/24 06:10:11;;;;;;;7.18;2.65;;;7.60;99.90;;;;;;5075140;28;20023;-69
2022/02/24 06:12:36;;;;;;;5.22;2.47;;;7.60;99.90;;;;;;5093132;28;20032;-69
2022/02/24 06:15:03;;;;;;;4.73;2.40;;;7.60;99.90;;;;;;5096147;28;20031;-69
2022/02/24 06:17:29;;;;;;;12.25;2.63;;;7.50;99.90;;;;;;5092973;28;20020;-69
2022/02/24 06:19:55;;;;;;;5.20;2.37;;;7.50;99.90;;;;;;5075008;28;20542;-68
2022/02/24 06:22:21;;;;;;;5.80;2.30;;;7.50;99.90;;;;;;5092970;28;20165;-69
2022/02/24 06:24:47;;;;;;;4.80;2.78;;;7.50;99.90;;;;;;5093996;28;20447;-69
2022/02/24 06:27:12;;;;;;;4.13;2.40;;;7.60;99.90;;;;;;5075340;28;20071;-69
2022/02/24 06:29:38;;;;;;;8.50;2.73;;;7.60;99.90;;;;;;5093099;28;20285;-69
2022/02/24 06:32:04;;;;;;;3.73;2.60;;;7.70;99.90;;;;;;5093149;28;20403;-69
2022/02/24 06:34:30;;;;;;;5.20;2.05;;;7.70;99.90;;;;;;5076216;28;20031;-70
2022/02/24 06:36:57;;;;;;;5.30;2.55;;;7.60;99.90;;;;;;5079800;28;20024;-70
2022/02/24 06:39:22;;;;;;;4.90;2.65;;;7.50;99.90;;;;;;5098056;28;20024;-70
2022/02/24 06:41:48;;;;;;;6.03;2.45;;;7.50;99.90;;;;;;5097716;28;20043;-70
2022/02/24 06:44:14;;;;;;;5.57;2.10;;;7.40;99.90;;;;;;5098137;28;20069;-70
2022/02/24 06:46:40;;;;;;;4.70;2.42;;;7.40;99.90;;;;;;5078977;28;20028;-69
2022/02/24 06:49:06;;;;;;;4.20;2.20;;;7.40;99.90;;;;;;5078558;28;20078;-69
2022/02/24 06:51:31;;;;;;;6.50;3.57;;;7.40;99.90;;;;;;5095991;28;20044;-69
2022/02/24 06:53:57;;;;;;;6.63;2.53;;;7.40;99.90;;;;;;5096738;28;20842;-69
2022/02/24 06:56:26;;;;;;;7.90;2.53;;;7.40;99.90;;;;;;5096544;28;20028;-70
2022/02/24 06:58:52;;;;;;;6.72;2.53;;;7.40;99.90;;;;;;5078536;28;20020;-69
2022/02/24 07:01:18;;;;;;;7.03;2.17;;;7.40;99.90;;;;;;5097017;28;20030;-69
2022/02/24 07:03:44;;;;;;;6.30;2.67;;;7.40;99.90;;;;;;5078395;28;20476;-69
2022/02/24 07:06:10;;;;;;;6.10;3.20;;;7.40;99.90;;;;;;5078211;28;20031;-70
2022/02/24 07:08:36;;;;;;;5.18;2.33;;;7.50;99.90;;;;;;5096529;28;20119;-70
2022/02/24 07:11:05;;;;;;;4.75;2.58;;;7.50;99.90;;;;;;5096646;28;20062;-69
2022/02/24 07:13:30;;;;;;;4.32;2.40;;;7.60;99.90;;;;;;5114105;22;20123;-67
2022/02/24 07:15:56;;;;;;;5.47;2.20;;;7.60;99.90;;;;;;5099153;28;20048;-66
2022/02/24 07:18:21;;;;;;;6.27;2.13;;;7.60;99.90;;;;;;5114742;28;20258;-67
2022/02/24 07:20:47;;;;;;;7.33;2.63;;;7.60;99.90;;;;;;5115456;28;20020;-67
2022/02/24 07:23:13;;;;;;;5.25;2.30;;;7.60;99.90;;;;;;5115065;28;20039;-67
2022/02/24 07:25:39;;;;;;;4.87;2.40;;;7.60;99.90;;;;;;5097395;28;20069;-67
2022/02/24 07:28:07;;;;;;;6.30;2.78;;;7.70;99.90;;;;;;5096511;28;20020;-67
2022/02/24 07:30:37;;;;;;;5.53;2.47;;;7.70;99.90;;;;;;5098412;28;20480;-66
2022/02/24 07:33:03;;;;;;;7.10;2.60;;;7.70;99.90;;;;;;5098351;28;20060;-66
2022/02/24 07:35:29;;;;;;;;;;;7.80;99.90;;;;;;5096701;28;20024;-66
2022/02/24 07:37:54;;;;;;;3.40;2.03;;;7.80;99.90;;;;;;5098433;28;19954;-66
2022/02/24 07:40:20;;;;;;;4.07;2.15;;;7.80;99.90;;;;;;5097345;28;20036;-66
2022/02/24 07:42:46;;;;;;;7.35;2.58;;;7.80;99.90;;;;;;5097053;28;20024;-66
2022/02/24 07:45:12;;;;;;;5.50;2.23;;;7.80;99.90;;;;;;5096750;28;20048;-66
2022/02/24 07:47:38;;;;;;;9.68;2.42;;;7.80;99.90;;;;;;5096416;28;20054;-67
2022/02/24 07:50:05;;;;;;;4.60;2.47;;;7.90;99.90;;;;;;5097275;28;20048;-67
2022/02/24 07:52:30;;;;;;;4.75;2.13;;;7.80;99.90;;;;;;5096977;28;20020;-67
2022/02/24 07:54:56;;;;;;;4.23;2.40;;;7.80;99.90;;;;;;5097286;28;20025;-66
2022/02/24 07:57:22;;;;;;;3.70;2.20;;;7.80;99.90;;;;;;5096032;28;20069;-67
2022/02/24 07:59:48;;;;;;;6.72;3.35;;;7.80;99.90;;;;;;5096673;28;20019;-67
2022/02/24 08:02:14;;;;;;;5.30;2.30;;;7.90;99.90;;;;;;5095087;28;20506;-66
2022/02/24 08:04:39;;;;;;;5.97;2.40;;;7.90;99.90;;;;;;5096835;28;20059;-66
2022/02/24 08:07:05;;;;;;;4.73;2.30;;;7.90;99.90;;;;;;5096365;28;20293;-67
2022/02/24 08:09:31;;;;;;;6.82;2.85;;;7.90;99.90;;;;;;5096162;28;20031;-66
2022/02/24 08:14:41;;;;;;;8.48;3.83;;;8.00;99.90;;;;;;5097000;28;20392;-67
2022/02/24 08:17:07;;;;;;;6.33;3.40;;;8.20;99.90;;;;;;5095580;28;20024;-66
2022/02/24 08:19:34;;;;;;;13.27;4.35;;;8.20;99.90;;;;;;5095941;28;20024;-67
2022/02/24 08:22:00;;;;;;;6.53;2.85;;;8.40;99.90;;;;;;5094375;28;20032;-65
2022/02/24 08:24:26;;;;;;;10.98;4.30;;;8.50;99.90;;;;;;5094621;28;20173;-67
2022/02/24 08:26:52;;;;;;;13.17;5.10;;;8.50;99.90;;;;;;5094403;28;20078;-67
2022/02/24 08:29:18;;;;;;;13.18;3.70;;;8.60;99.90;;;;;;5095570;28;20472;-67
2022/02/24 08:31:44;;;;;;;7.68;3.28;;;8.60;99.90;;;;;;5095165;28;20036;-66
2022/02/24 08:34:10;;;;;;;4.83;3.13;;;8.70;99.90;;;;;;5096221;28;20031;-66
2022/02/24 08:36:36;;;;;;;5.88;2.55;;;8.80;99.90;;;;;;5097534;28;20149;-66
2022/02/24 08:39:04;;;;;;;6.28;3.20;;;8.90;99.90;;;;;;5096642;28;20044;-66
2022/02/24 08:41:30;;;;;;;6.07;3.67;;;8.80;99.90;;;;;;5094574;28;20028;-66
2022/02/24 08:43:56;;;;;;;12.23;5.35;;;8.80;99.90;;;;;;5094016;28;20028;-64
2022/02/24 08:46:21;;;;;;;5.93;2.80;;;8.70;99.90;;;;;;5094096;28;20028;-67
2022/02/24 08:48:47;;;;;;;10.13;4.97;;;8.80;99.90;;;;;;5096166;28;20024;-67
2022/02/24 08:51:13;;;;;;;5.87;3.23;;;8.70;99.90;;;;;;5095963;28;20024;-66
2022/02/24 08:53:39;;;;;;;10.52;4.43;;;8.70;99.90;;;;;;5096575;28;20020;-68
2022/02/24 08:56:04;;;;;;;10.90;3.70;;;8.70;99.90;;;;;;5097701;28;20077;-67
2022/02/24 08:58:30;;;;;;;4.63;3.17;;;8.70;99.90;;;;;;5094418;28;20030;-67
2022/02/24 09:00:56;;;;;;;4.33;3.10;;;8.90;99.90;;;;;;5095668;28;20016;-67
2022/02/24 09:03:22;;;;;;;3.72;2.13;;;9.00;99.90;;;;;;5095299;28;20024;-68
2022/02/24 09:05:47;;;;;;;11.70;4.47;;;9.20;99.90;;;;;;5095050;28;20103;-67
2022/02/24 09:08:13;;;;;;;7.57;2.90;;;9.20;99.90;;;;;;5094608;28;20025;-69
2022/02/24 09:10:39;;;;;;;4.60;2.30;;;9.20;99.90;;;;;;5094480;28;20339;-67
2022/02/24 09:13:05;;;;;;;6.20;3.07;;;9.40;99.90;;;;;;5092942;28;20036;-69
2022/02/24 09:15:35;;;;;;;5.05;2.33;;;9.40;99.90;;;;;;5094327;28;20264;-67
2022/02/24 09:18:05;;;;;;;5.68;3.00;;;9.50;99.90;;;;;;5094321;28;20027;-66
2022/02/24 09:20:32;;;;;;;7.60;2.55;;;9.80;99.90;;;;;;5092766;28;20031;-67
2022/02/24 09:22:58;;;;;;;4.55;2.50;;;9.90;99.90;;;;;;5094359;28;20031;-67
2022/02/24 09:25:23;;;;;;;4.70;2.17;;;10.10;99.90;;;;;;5092701;28;20020;-68
2022/02/24 09:27:50;;;;;;;4.05;2.90;;;10.30;99.90;;;;;;5094016;28;20503;-67
2022/02/24 09:30:16;;;;;;;4.05;2.53;;;10.60;99.90;;;;;;5094049;28;20050;-66
2022/02/24 09:32:43;;;;;;;6.47;2.80;;;10.80;99.90;;;;;;5092631;28;20031;-65
2022/02/24 09:35:10;;;;;;;16.83;7.78;;;12.00;99.90;;;;;;5094595;28;20016;-68
2022/02/24 09:37:36;;;;;;;6.28;2.83;;;13.60;99.90;;;;;;5094307;28;20476;-67
2022/02/24 09:40:06;;;;;;;7.50;3.05;;;14.50;99.90;;;;;;5093928;28;20039;-67
2022/02/24 09:42:34;;;;;;;5.90;2.88;;;14.90;98.70;;;;;;5093703;28;20036;-66
2022/02/24 09:45:00;;;;;;;6.45;2.70;;;14.80;98.30;;;;;;5092695;28;20024;-67
2022/02/24 09:47:30;;;;;;;5.32;2.67;;;14.50;98.90;;;;;;5095142;28;20031;-68
2022/02/24 09:49:59;;;;;;;5.75;3.58;;;14.40;99.40;;;;;;5094031;28;20039;-66
2022/02/24 09:52:25;;;;;;;6.35;2.70;;;14.90;98.40;;;;;;5093743;28;20468;-66
2022/02/24 09:54:51;;;;;;;3.47;2.45;;;15.70;96.80;;;;;;5092349;28;20116;-66
2022/02/24 09:57:17;;;;;;;10.68;4.65;;;16.40;95.20;;;;;;5093837;28;20044;-69
2022/02/24 09:59:43;;;;;;;13.70;4.75;;;16.70;94.10;;;;;;5092502;28;20424;-67
2022/02/24 10:02:12;;;;;;;4.68;2.53;;;17.10;92.90;;;;;;5093627;28;20373;-67
2022/02/24 10:04:38;;;;;;;13.45;3.55;;;16.50;93.20;;;;;;5091774;28;20020;-67
2022/02/24 10:07:03;;;;;;;7.35;2.45;;;15.80;94.90;;;;;;5093719;28;20024;-68
2022/02/24 10:09:34;;;;;;;15.95;2.85;;;15.20;95.80;;;;;;5091932;28;20480;-68
2022/02/24 10:12:08;;;;;;;3.90;2.00;;;14.60;97.30;;;;;;5093399;28;20610;-67
2022/02/24 10:14:34;;;;;;;8.50;2.33;;;14.10;98.60;;;;;;5093576;28;20032;-67
2022/02/24 10:17:02;;;;;;;;;;;14.20;99.10;;;;;;5093910;28;20077;-68
2022/02/24 10:19:35;;;;;;;5.15;1.98;;;14.30;98.50;;;;;;5093518;28;19908;-69
2022/02/24 10:22:14;;;;;;;4.97;1.70;;;14.80;96.90;;;;;;5093582;28;20089;-69
2022/02/24 10:24:42;;;;;;;6.57;1.73;;;16.10;95.20;;;;;;5093318;28;20365;-68
2022/02/24 10:27:30;;;;;;;5.47;1.73;;;16.10;93.30;;;;;;5093187;28;20053;-68
2022/02/24 10:30:16;;;;;;;3.88;1.50;;;16.80;92.00;;;;;;5092632;28;20372;-68
2022/02/24 10:32:50;;;;;;;3.22;1.60;;;16.90;91.30;;;;;;5093110;28;20039;-68
2022/02/24 10:35:24;;;;;;;4.72;1.77;;;16.80;91.10;;;;;;5093443;28;20030;-68
2022/02/24 10:37:59;;;;;;;3.67;1.60;;;16.60;91.10;;;;;;5093158;28;20016;-68
2022/02/24 10:40:30;;;;;;;3.85;2.00;;;15.80;92.00;;;;;;5091847;28;20024;-68
2022/02/24 10:43:16;;;;;;;5.03;2.03;;;15.60;92.10;;;;;;5093770;28;20029;-68
2022/02/24 10:45:44;;;;;;;3.65;1.80;;;15.40;92.00;;;;;;5094142;28;20028;-67
2022/02/24 10:48:09;;;;;;;3.83;1.98;;;15.00;93.00;;;;;;5093782;28;20032;-68
2022/02/24 10:50:57;;;;;;;2.83;1.67;;;14.40;93.80;;;;;;5091868;28;20020;-68
2022/02/24 10:53:24;;;;;;;;;;;14.10;94.70;;;;;;5093576;28;20036;-68
2022/02/24 10:55:54;;;;;;;4.45;2.10;;;13.90;95.30;;;;;;5093192;28;19904;-68
2022/02/24 10:58:20;;;;;;;3.75;1.88;;;14.00;95.50;;;;;;5092972;28;20035;-68
2022/02/24 11:00:46;;;;;;;;;;;14.10;95.40;;;;;;5093560;28;20023;-68
2022/02/24 11:03:12;;;;;;;18.83;3.03;;;14.00;95.20;;;;;;5093105;28;19904;-68
2022/02/24 11:05:40;;;;;;;4.75;1.83;;;13.90;95.70;;;;;;5091785;28;20107;-68
2022/02/24 11:08:10;;;;;;;5.13;2.38;;;13.60;96.40;;;;;;5093197;28;20433;-68
2022/02/24 11:10:38;;;;;;;5.47;2.65;;;13.60;96.70;;;;;;5092779;28;20052;-68
2022/02/24 11:13:04;;;;;;;6.15;2.38;;;13.60;96.40;;;;;;5092605;28;20028;-67
2022/02/24 11:15:31;;;;;;;6.45;1.85;;;13.60;96.70;;;;;;5092921;28;20055;-67
2022/02/24 11:17:57;;;;;;;4.13;2.33;;;13.70;96.70;;;;;;5092935;28;20020;-67
2022/02/24 11:20:23;;;;;;;5.65;2.53;;;13.90;96.50;;;;;;5093030;28;20028;-67
2022/02/24 11:22:49;;;;;;;8.13;2.70;;;14.10;96.10;;;;;;5094494;28;20040;-67
2022/02/24 11:25:16;;;;;;;8.07;2.22;;;14.10;95.90;;;;;;5095460;28;20131;-67
2022/02/24 11:27:50;;;;;;;6.30;2.80;;;13.90;96.00;;;;;;5094878;28;20491;-67
2022/02/24 11:30:31;;;;;;;3.40;1.77;;;13.80;96.20;;;;;;5096522;28;20071;-67
2022/02/24 11:32:58;;;;;;;5.68;1.88;;;13.70;96.40;;;;;;5094960;28;20078;-67
2022/02/24 11:35:27;;;;;;;3.78;1.80;;;13.50;96.30;;;;;;5094789;28;20024;-67
2022/02/24 11:38:12;;;;;;;6.03;1.67;;;13.40;96.60;;;;;;5096273;28;20050;-67
2022/02/24 11:40:39;;;;;;;3.35;1.70;;;13.40;96.60;;;;;;5095444;28;20032;-67
2022/02/24 11:43:14;;;;;;;3.63;1.63;;;13.70;96.10;;;;;;5095796;28;20031;-67
2022/02/24 11:45:47;;;;;;;4.57;2.42;;;13.90;95.30;;;;;;5096102;28;20025;-67
2022/02/24 11:48:13;;;;;;;3.05;1.40;;;14.00;94.80;;;;;;5094766;28;20077;-68
2022/02/24 11:50:41;;;;;;;3.37;1.83;;;14.20;94.40;;;;;;5096810;28;20099;-67
2022/02/24 11:53:28;;;;;;;4.30;1.90;;;14.10;94.30;;;;;;5096146;28;20266;-68
2022/02/24 11:55:59;;;;;;;3.77;1.33;;;14.20;94.20;;;;;;5095009;28;20464;-67
2022/02/24 11:58:35;;;;;;;4.70;1.50;;;14.40;93.90;;;;;;5095946;28;20119;-67
2022/02/24 12:01:22;;;;;;;3.00;1.50;;;14.50;93.40;;;;;;5096930;28;20493;-68
2022/02/24 12:03:48;;;;;;;6.68;1.60;;;14.40;92.90;;;;;;5096562;28;20310;-68
2022/02/24 12:06:16;;;;;;;4.57;1.83;;;14.40;93.30;;;;;;5096361;28;20480;-67
2022/02/24 12:09:05;;;;;;;3.50;1.25;;;14.30;93.10;;;;;;5094619;28;20085;-67
2022/02/24 12:11:37;;;;;;;5.57;1.50;;;14.20;93.10;;;;;;5094096;28;20024;-66
2022/02/24 12:14:23;;;;;;;4.53;1.48;;;14.10;93.10;;;;;;5095493;28;20108;-67
2022/02/24 12:17:01;;;;;;;9.45;1.60;;;14.00;93.00;;;;;;5094935;28;20060;-67
2022/02/24 12:19:43;;;;;;;3.60;1.70;;;13.90;93.70;;;;;;5095565;28;20077;-68
2022/02/24 12:22:29;;;;;;;7.53;2.35;;;13.90;93.60;;;;;;5093899;28;20035;-67
2022/02/24 12:25:26;;;;;;;3.47;1.30;;;13.90;93.80;;;;;;5094377;28;20472;-67
2022/02/24 12:28:05;;;;;;;3.30;1.58;;;13.90;93.80;;;;;;5094090;28;20492;-68
2022/02/24 12:30:32;;;;;;;4.78;1.83;;;14.00;93.80;;;;;;5095338;28;20476;-67
2022/02/24 12:33:02;;;;;;;5.65;1.60;;;14.00;93.10;;;;;;5095443;28;20069;-67
2022/02/24 12:35:32;;;;;;;5.70;1.88;;;14.00;93.00;;;;;;5095235;28;20058;-67
2022/02/24 12:37:58;;;;;;;4.13;1.52;;;13.90;92.80;;;;;;5094983;28;20027;-67
2022/02/24 12:40:28;;;;;;;;;;;13.90;93.30;;;;;;5095708;28;20511;-67
2022/02/24 12:42:55;;;;;;;5.43;1.40;;;14.00;93.30;;;;;;5094999;28;20392;-64
2022/02/24 12:45:21;;;;;;;5.78;1.63;;;14.00;93.00;;;;;;5094670;28;20028;-67
2022/02/24 12:47:55;;;;;;;3.38;1.25;;;13.90;93.30;;;;;;5093483;28;20024;-67
2022/02/24 12:50:39;;;;;;;6.32;1.60;;;13.70;93.40;;;;;;5093441;28;20043;-68
2022/02/24 12:53:16;;;;;;;4.45;1.50;;;13.60;93.60;;;;;;5094975;28;20023;-68
2022/02/24 12:55:43;;;;;;;4.03;1.70;;;13.50;94.00;;;;;;5093391;28;20021;-68
2022/02/24 12:58:11;;;;;;;5.57;1.85;;;13.40;94.50;;;;;;5095182;28;20027;-67
2022/02/24 13:00:39;;;;;;;5.82;2.13;;;13.30;94.90;;;;;;5095206;28;20031;-68